Seaexpressii — HO4619 — position and weather

sailwx.info

Track history (hours):
 
Tides and Currents Weather Stations Pressure Air Temp Water Temp Dewpoint Dewpoint Depression Visibility Wind Speed Wind Dir Waves Ship Positions

Seaexpressii

Last reported at 2014-Oct-01 09:13 UTC. Time now 2014-Oct-01 20:21 UTC.
Position N 26°15' W 079°34'.

Length 37 m; draft 2 m.

Type: Ship. MMSI: 356449000.

Date/timePositionNaut miles runAvg speedWind from/ knotsBaromVisibWave heightAir tempDewpointWater temp
2014-Oct-01 09:13N 26°15' W 079°34'7 9.9
2014-Oct-01 08:33N 26°13' W 079°41'1010.0
2014-Oct-01 07:33N 26°09' W 079°52'1010.2
2014-Oct-01 06:33N 26°06' W 080°03'5 5.3
2014-Oct-01 05:33N 26°04' W 080°08'0 0.0
2014-Oct-01 04:33N 26°04' W 080°08'0 0.0
2014-Oct-01 03:33N 26°04' W 080°08'0 0.0
2014-Oct-01 02:33N 26°04' W 080°08'0 0.0
2014-Oct-01 01:33N 26°04' W 080°08'1 1.5
2014-Oct-01 00:33N 26°05' W 080°07'9 9.2
2014-Sep-30 23:33N 26°02' W 079°57'1111.3
2014-Sep-30 22:33N 25°56' W 079°46'1111.2
2014-Sep-30 21:33N 25°51' W 079°35'23 1.4
2014-Sep-30 05:30N 26°12' W 079°44'1111.5
2014-Sep-30 04:33N 26°08' W 079°55'1110.9
2014-Sep-30 03:33N 26°06' W 080°07'2 2.2
2014-Sep-30 02:33N 26°04' W 080°08'0 0.0
2014-Sep-30 01:30N 26°04' W 080°08'0 0.0
2014-Sep-30 00:30N 26°04' W 080°08'0 0.5
2014-Sep-29 23:34N 26°04' W 080°07'7 6.7
2014-Sep-29 22:33N 26°03' W 079°60'1111.1
2014-Sep-29 21:33N 25°56' W 079°50'1111.2
2014-Sep-29 20:33N 25°50' W 079°39'2 0.2
2014-Sep-29 08:07N 25°52' W 079°39'4 7.3
2014-Sep-29 07:33N 25°54' W 079°43'8 7.7
2014-Sep-29 06:32N 25°58' W 079°50'8 8.3
2014-Sep-29 05:33N 26°02' W 079°58'8 8.3
2014-Sep-29 04:33N 26°05' W 080°07'2 1.6
2014-Sep-29 03:33N 26°04' W 080°08'0 0.0
2014-Sep-29 02:33N 26°04' W 080°08'0 0.0
2014-Sep-29 01:33N 26°04' W 080°08'0 0.0
2014-Sep-29 00:33N 26°04' W 080°08'0 0.0
2014-Sep-28 23:33N 26°04' W 080°08'1 1.2
2014-Sep-28 22:33N 26°04' W 080°07'5 5.1
2014-Sep-28 21:33N 26°02' W 080°02'1111.1
2014-Sep-28 20:33N 25°56' W 079°52'1110.9
2014-Sep-28 19:33N 25°51' W 079°41'1510.5
2014-Sep-28 18:08N 25°50' W 079°24'  
2014-Sep-25 08:30N 25°51' W 079°44'6 6.7
2014-Sep-25 07:33N 25°55' W 079°50'7 6.8
2014-Sep-25 06:33N 25°59' W 079°56'8 7.9
2014-Sep-25 05:33N 26°04' W 080°03'5 4.5
2014-Sep-25 04:33N 26°04' W 080°08'0 0.0
2014-Sep-25 03:33N 26°04' W 080°08'0 0.0
2014-Sep-25 02:33N 26°04' W 080°08'0 0.0
2014-Sep-25 01:33N 26°04' W 080°08'0 0.0
2014-Sep-25 00:33N 26°04' W 080°08'0 0.1
2014-Sep-24 23:24N 26°04' W 080°08'2 2.8
2014-Sep-24 22:33N 26°06' W 080°06'8 8.1
2014-Sep-24 21:33N 26°02' W 079°58'1010.0
2014-Sep-24 20:33N 25°59' W 079°48'1010.2
2014-Sep-24 19:33N 25°56' W 079°37'  
Track history (hours):
 
Tides and Currents Weather Stations Pressure Air Temp Water Temp Dewpoint Dewpoint Depression Visibility Wind Speed Wind Dir Waves Ship Positions

Seaexpressii

Last reported at 2014-Oct-01 09:13 UTC. Time now 2014-Oct-01 20:21 UTC.
Position N 26°15' W 079°34'.

Length 37 m; draft 2 m.

Type: Ship. MMSI: 356449000.

Date/timePositionNaut miles runAvg speedWind from/ knotsBaromVisibWave heightAir tempDewpointWater temp
2014-Oct-01 09:13N 26°15' W 079°34'7 9.9
2014-Oct-01 08:33N 26°13' W 079°41'1010.0
2014-Oct-01 07:33N 26°09' W 079°52'1010.2
2014-Oct-01 06:33N 26°06' W 080°03'5 5.3
2014-Oct-01 05:33N 26°04' W 080°08'0 0.0
2014-Oct-01 04:33N 26°04' W 080°08'0 0.0
2014-Oct-01 03:33N 26°04' W 080°08'0 0.0
2014-Oct-01 02:33N 26°04' W 080°08'0 0.0
2014-Oct-01 01:33N 26°04' W 080°08'1 1.5
2014-Oct-01 00:33N 26°05' W 080°07'9 9.2
2014-Sep-30 23:33N 26°02' W 079°57'1111.3
2014-Sep-30 22:33N 25°56' W 079°46'1111.2
2014-Sep-30 21:33N 25°51' W 079°35'23 1.4
2014-Sep-30 05:30N 26°12' W 079°44'1111.5
2014-Sep-30 04:33N 26°08' W 079°55'1110.9
2014-Sep-30 03:33N 26°06' W 080°07'2 2.2
2014-Sep-30 02:33N 26°04' W 080°08'0 0.0
2014-Sep-30 01:30N 26°04' W 080°08'0 0.0
2014-Sep-30 00:30N 26°04' W 080°08'0 0.5
2014-Sep-29 23:34N 26°04' W 080°07'7 6.7
2014-Sep-29 22:33N 26°03' W 079°60'1111.1
2014-Sep-29 21:33N 25°56' W 079°50'1111.2
2014-Sep-29 20:33N 25°50' W 079°39'2 0.2
2014-Sep-29 08:07N 25°52' W 079°39'4 7.3
2014-Sep-29 07:33N 25°54' W 079°43'8 7.7
2014-Sep-29 06:32N 25°58' W 079°50'8 8.3
2014-Sep-29 05:33N 26°02' W 079°58'8 8.3
2014-Sep-29 04:33N 26°05' W 080°07'2 1.6
2014-Sep-29 03:33N 26°04' W 080°08'0 0.0
2014-Sep-29 02:33N 26°04' W 080°08'0 0.0
2014-Sep-29 01:33N 26°04' W 080°08'0 0.0
2014-Sep-29 00:33N 26°04' W 080°08'0 0.0
2014-Sep-28 23:33N 26°04' W 080°08'1 1.2
2014-Sep-28 22:33N 26°04' W 080°07'5 5.1
2014-Sep-28 21:33N 26°02' W 080°02'1111.1
2014-Sep-28 20:33N 25°56' W 079°52'1110.9
2014-Sep-28 19:33N 25°51' W 079°41'1510.5
2014-Sep-28 18:08N 25°50' W 079°24'  
2014-Sep-25 08:30N 25°51' W 079°44'6 6.7
2014-Sep-25 07:33N 25°55' W 079°50'7 6.8
2014-Sep-25 06:33N 25°59' W 079°56'8 7.9
2014-Sep-25 05:33N 26°04' W 080°03'5 4.5
2014-Sep-25 04:33N 26°04' W 080°08'0 0.0
2014-Sep-25 03:33N 26°04' W 080°08'0 0.0
2014-Sep-25 02:33N 26°04' W 080°08'0 0.0
2014-Sep-25 01:33N 26°04' W 080°08'0 0.0
2014-Sep-25 00:33N 26°04' W 080°08'0 0.1
2014-Sep-24 23:24N 26°04' W 080°08'2 2.8
2014-Sep-24 22:33N 26°06' W 080°06'8 8.1
2014-Sep-24 21:33N 26°02' W 079°58'1010.0
2014-Sep-24 20:33N 25°59' W 079°48'1010.2
2014-Sep-24 19:33N 25°56' W 079°37'  

Dump ship's entire track history